Time;durP1;ratioP1;P1;durP2;ratioP2;P2;SDS_P1;SDS_P2;PMS_P1;PMS_P2;Temp;Humidity;BMP_temperature;BMP_pressure;BME280_temperature;BME280_humidity;BME280_pressure;Samples;Min_cycle;Max_cycle;Signal;HPM_P1;HPM_P2
2022/03/11 00:00:08;;;;;;;4.82;2.58;;;19.10;45.80;;;;;;6197066;28;20035;-70
2022/03/11 00:03:13;;;;;;;3.28;2.45;;;19.10;45.80;;;;;;6197688;28;20397;-70
2022/03/11 00:06:13;;;;;;;3.23;1.73;;;19.10;45.70;;;;;;6196755;28;20121;-70
2022/03/11 00:09:14;;;;;;;3.55;2.13;;;19.10;45.80;;;;;;6197389;28;20060;-70
2022/03/11 00:12:14;;;;;;;3.55;2.30;;;19.10;45.90;;;;;;6197213;28;20228;-70
2022/03/11 00:15:15;;;;;;;3.55;2.15;;;19.10;45.80;;;;;;6196803;28;20032;-70
2022/03/11 00:18:15;;;;;;;3.28;2.15;;;19.10;45.80;;;;;;6196511;28;20479;-70
2022/03/11 00:21:16;;;;;;;4.95;2.60;;;19.10;45.70;;;;;;6196764;28;20030;-70
2022/03/11 00:24:16;;;;;;;4.32;2.60;;;19.10;45.80;;;;;;6196679;28;20025;-70
2022/03/11 00:27:17;;;;;;;3.33;2.28;;;19.10;45.70;;;;;;6196349;28;20081;-70
2022/03/11 00:30:18;;;;;;;4.38;2.35;;;19.10;45.60;;;;;;6196534;28;20053;-70
2022/03/11 00:33:18;;;;;;;3.90;2.30;;;19.10;45.70;;;;;;6196909;28;20129;-69
2022/03/11 00:36:19;;;;;;;3.30;2.05;;;19.10;45.80;;;;;;6196427;28;20424;-70
2022/03/11 00:39:19;;;;;;;3.25;2.13;;;19.10;45.80;;;;;;6196700;28;20604;-70
2022/03/11 00:42:20;;;;;;;3.58;2.30;;;19.10;45.80;;;;;;6196200;28;20026;-70
2022/03/11 00:45:22;;;;;;;3.63;2.13;;;19.10;45.80;;;;;;6196307;28;20030;-70
2022/03/11 00:48:22;;;;;;;4.68;2.50;;;19.10;45.80;;;;;;6195952;28;20041;-70
2022/03/11 00:51:23;;;;;;;4.35;2.58;;;19.10;45.70;;;;;;6196047;28;20026;-70
2022/03/11 00:54:24;;;;;;;3.92;2.20;;;19.00;45.60;;;;;;6196189;28;20039;-69
2022/03/11 00:57:25;;;;;;;3.20;2.13;;;19.10;45.80;;;;;;6195905;28;20026;-70
2022/03/11 01:00:25;;;;;;;3.05;1.95;;;19.10;45.70;;;;;;6195598;28;20097;-70
2022/03/11 01:03:26;;;;;;;4.82;2.35;;;19.10;45.70;;;;;;6195431;28;20037;-70
2022/03/11 01:06:26;;;;;;;4.22;2.30;;;19.10;45.70;;;;;;6195731;28;20050;-70
2022/03/11 01:09:27;;;;;;;3.80;2.60;;;19.10;45.80;;;;;;6195363;28;20503;-70
2022/03/11 01:12:27;;;;;;;3.55;2.25;;;19.10;45.70;;;;;;6195814;28;20041;-70
2022/03/11 01:15:28;;;;;;;5.07;2.50;;;19.10;45.80;;;;;;6195604;28;20098;-70
2022/03/11 01:18:28;;;;;;;3.08;1.92;;;19.10;45.80;;;;;;6195198;28;20028;-70
2022/03/11 01:21:29;;;;;;;3.50;2.25;;;19.10;45.70;;;;;;6195281;28;20028;-70
2022/03/11 01:24:30;;;;;;;3.50;2.30;;;19.00;45.60;;;;;;6195393;28;20022;-70
2022/03/11 01:27:30;;;;;;;3.20;1.85;;;19.10;45.70;;;;;;6195076;28;20058;-70
2022/03/11 01:30:31;;;;;;;3.10;1.98;;;19.10;45.80;;;;;;6195199;28;20106;-70
2022/03/11 01:33:31;;;;;;;3.83;2.05;;;19.10;45.70;;;;;;6195012;28;20473;-70
2022/03/11 01:36:32;;;;;;;3.40;2.05;;;19.10;45.70;;;;;;6195005;28;20029;-70
2022/03/11 01:39:33;;;;;;;3.10;2.25;;;19.10;45.70;;;;;;6195147;28;20227;-70
2022/03/11 01:42:34;;;;;;;3.42;2.08;;;19.00;45.70;;;;;;6194933;28;20041;-69
2022/03/11 01:45:34;;;;;;;3.15;2.17;;;19.00;45.70;;;;;;6195109;28;20104;-70
2022/03/11 01:48:35;;;;;;;4.07;2.60;;;19.10;45.70;;;;;;6194861;28;20022;-70
2022/03/11 01:51:41;;;;;;;3.30;2.15;;;19.10;45.80;;;;;;6194295;28;20035;-70
2022/03/11 01:54:43;;;;;;;3.72;2.40;;;19.00;45.60;;;;;;6194778;28;20125;-70
2022/03/11 01:57:43;;;;;;;3.08;1.90;;;19.10;45.70;;;;;;6194716;28;20018;-69
2022/03/11 02:00:45;;;;;;;3.50;2.20;;;19.10;45.70;;;;;;6194616;28;20480;-70
2022/03/11 02:03:46;;;;;;;3.88;2.30;;;19.00;46.20;;;;;;6194572;28;20041;-71
2022/03/11 02:06:46;;;;;;;4.85;2.15;;;19.00;45.50;;;;;;6198776;28;20023;-70
2022/03/11 02:09:47;;;;;;;4.38;2.28;;;19.10;45.60;;;;;;6194516;28;20402;-70
2022/03/11 02:12:47;;;;;;;4.07;1.95;;;19.00;45.70;;;;;;6194438;28;20041;-70
2022/03/11 02:15:48;;;;;;;3.40;2.22;;;19.00;45.60;;;;;;6198393;28;20507;-70
2022/03/11 02:18:49;;;;;;;4.28;2.45;;;19.10;45.70;;;;;;6200017;28;20039;-70
2022/03/11 02:21:51;;;;;;;2.67;2.03;;;19.10;45.60;;;;;;6199306;28;20026;-70
2022/03/11 02:24:53;;;;;;;4.07;2.22;;;19.00;45.50;;;;;;6198840;28;20128;-70
2022/03/11 02:27:54;;;;;;;3.63;2.20;;;19.00;45.50;;;;;;6199283;28;20046;-70
2022/03/11 02:30:56;;;;;;;3.35;2.17;;;19.10;45.50;;;;;;6199333;28;20088;-70
2022/03/11 02:33:58;;;;;;;3.60;2.40;;;19.10;45.60;;;;;;6199185;28;20035;-70
2022/03/11 02:36:59;;;;;;;3.33;2.10;;;19.10;45.50;;;;;;6199148;28;20041;-70
2022/03/11 02:39:59;;;;;;;2.60;2.00;;;19.10;45.50;;;;;;6198611;28;20106;-70
2022/03/11 02:43:00;;;;;;;3.78;2.20;;;19.00;45.40;;;;;;6198894;28;20027;-70
2022/03/11 02:46:00;;;;;;;3.55;2.30;;;19.10;45.50;;;;;;6198933;28;20062;-70
2022/03/11 02:49:02;;;;;;;4.55;2.15;;;19.10;45.60;;;;;;6198940;28;20113;-70
2022/03/11 02:52:03;;;;;;;2.88;1.77;;;19.10;45.50;;;;;;6199073;28;20027;-70
2022/03/11 02:55:04;;;;;;;3.17;2.10;;;19.00;45.50;;;;;;6199046;28;20027;-70
2022/03/11 02:58:04;;;;;;;3.40;1.95;;;19.00;45.50;;;;;;6198647;28;20243;-70
2022/03/11 03:01:05;;;;;;;4.07;2.30;;;19.10;45.60;;;;;;6198670;28;20061;-70
2022/03/11 03:04:05;;;;;;;4.53;2.13;;;19.10;45.50;;;;;;6198510;28;20034;-70
2022/03/11 03:07:07;;;;;;;3.70;2.20;;;19.00;45.40;;;;;;6198757;28;20033;-70
2022/03/11 03:10:10;;;;;;;3.63;2.10;;;19.00;45.40;;;;;;6198779;28;20023;-70
2022/03/11 03:13:13;;;;;;;3.45;2.20;;;19.00;45.40;;;;;;6198907;28;20043;-70
2022/03/11 03:16:14;;;;;;;3.63;2.20;;;19.00;45.30;;;;;;6198371;28;20088;-70
2022/03/11 03:19:14;;;;;;;3.88;2.10;;;19.10;45.50;;;;;;6198388;28;20034;-70
2022/03/11 03:22:15;;;;;;;3.15;2.00;;;19.10;45.50;;;;;;6198339;28;20053;-70
2022/03/11 03:25:16;;;;;;;3.58;1.90;;;19.10;45.50;;;;;;6197688;28;20172;-70
2022/03/11 03:28:16;;;;;;;3.33;2.30;;;19.00;45.50;;;;;;6198198;28;20113;-70
2022/03/11 03:31:19;;;;;;;3.53;2.28;;;19.00;45.60;;;;;;6197988;28;20034;-70
2022/03/11 03:34:19;;;;;;;3.67;2.30;;;19.10;45.60;;;;;;6198310;28;20134;-70
2022/03/11 03:37:20;;;;;;;2.67;1.85;;;19.00;45.50;;;;;;6197974;28;20026;-69
2022/03/11 03:40:20;;;;;;;3.70;2.08;;;19.00;45.50;;;;;;6198024;28;20508;-70
2022/03/11 03:43:21;;;;;;;6.85;2.30;;;19.00;45.50;;;;;;6197486;28;20117;-70
2022/03/11 03:46:21;;;;;;;3.25;2.08;;;19.00;45.50;;;;;;6197827;28;20482;-70
2022/03/11 03:49:22;;;;;;;3.25;2.13;;;19.00;45.40;;;;;;6197470;28;20125;-70
2022/03/11 03:52:23;;;;;;;3.08;2.25;;;19.00;45.50;;;;;;6197273;28;20038;-70
2022/03/11 03:55:24;;;;;;;4.15;2.13;;;19.10;45.50;;;;;;6197313;28;20479;-70
2022/03/11 03:58:24;;;;;;;3.78;2.03;;;19.00;45.50;;;;;;6197478;28;20053;-70
2022/03/11 04:01:25;;;;;;;3.58;2.25;;;19.00;45.40;;;;;;6196904;28;20033;-69
2022/03/11 04:04:25;;;;;;;3.00;2.20;;;19.00;45.40;;;;;;6197247;28;20022;-70
2022/03/11 04:07:26;;;;;;;3.45;2.28;;;19.00;45.40;;;;;;6196568;28;20019;-70
2022/03/11 04:10:26;;;;;;;3.28;2.10;;;19.00;45.40;;;;;;6197158;28;20525;-69
2022/03/11 04:13:27;;;;;;;3.28;1.98;;;19.00;45.50;;;;;;6196897;28;20038;-70
2022/03/11 04:16:28;;;;;;;4.00;2.20;;;19.00;45.50;;;;;;6197008;28;20516;-70
2022/03/11 04:19:28;;;;;;;3.20;2.13;;;19.00;45.40;;;;;;6196865;28;20065;-70
2022/03/11 04:22:29;;;;;;;4.05;2.45;;;19.00;45.50;;;;;;6196744;28;20022;-70
2022/03/11 04:25:29;;;;;;;2.72;1.67;;;19.00;45.50;;;;;;6195820;28;20062;-70
2022/03/11 04:28:30;;;;;;;2.60;1.90;;;19.00;45.50;;;;;;6196379;28;20023;-70
2022/03/11 04:31:30;;;;;;;3.50;2.10;;;19.00;45.40;;;;;;6196591;28;20026;-70
2022/03/11 04:34:31;;;;;;;4.00;2.28;;;19.00;45.40;;;;;;6196256;28;20141;-70
2022/03/11 04:37:31;;;;;;;3.45;2.40;;;19.00;45.30;;;;;;6195431;28;20034;-70
2022/03/11 04:40:32;;;;;;;3.30;2.17;;;19.00;45.30;;;;;;6196216;28;20371;-70
2022/03/11 04:43:32;;;;;;;4.05;2.40;;;19.00;45.40;;;;;;6196340;28;20073;-70
2022/03/11 04:46:33;;;;;;;3.47;2.22;;;19.00;45.60;;;;;;6196188;28;20030;-70
2022/03/11 04:49:33;;;;;;;2.50;1.70;;;19.00;45.40;;;;;;6195851;28;20037;-70
2022/03/11 04:52:34;;;;;;;4.15;2.10;;;19.00;45.40;;;;;;6196250;28;20190;-70
2022/03/11 04:55:36;;;;;;;4.03;2.30;;;19.00;45.30;;;;;;6195888;28;20318;-70
2022/03/11 04:58:36;;;;;;;3.30;2.30;;;19.00;45.20;;;;;;6195833;28;20037;-70
2022/03/11 05:01:37;;;;;;;3.70;2.45;;;19.00;45.30;;;;;;6195859;28;20683;-70
2022/03/11 05:04:37;;;;;;;3.38;2.15;;;19.00;45.20;;;;;;6195777;28;20513;-70
2022/03/11 05:07:38;;;;;;;4.18;2.65;;;19.00;45.30;;;;;;6195501;28;20105;-70
2022/03/11 05:10:39;;;;;;;3.88;2.28;;;19.00;45.40;;;;;;6195689;28;20124;-70
2022/03/11 05:13:40;;;;;;;4.28;2.45;;;19.00;45.20;;;;;;6195418;28;20034;-70
2022/03/11 05:16:40;;;;;;;4.45;2.80;;;19.00;45.20;;;;;;6195630;28;20030;-70
2022/03/11 05:19:41;;;;;;;3.13;2.28;;;19.00;45.30;;;;;;6195189;28;20117;-70
2022/03/11 05:22:42;;;;;;;4.82;2.75;;;19.00;45.20;;;;;;6195505;28;20489;-70
2022/03/11 05:25:43;;;;;;;4.05;2.28;;;19.00;45.20;;;;;;6194949;28;20054;-70
2022/03/11 05:28:43;;;;;;;3.53;2.25;;;19.00;45.10;;;;;;6195199;28;20536;-70
2022/03/11 05:31:43;;;;;;;3.53;2.45;;;19.00;45.20;;;;;;6195314;28;20030;-70
2022/03/11 05:34:44;;;;;;;4.75;2.80;;;19.00;45.10;;;;;;6194996;28;20552;-69
2022/03/11 05:37:46;;;;;;;3.47;2.20;;;19.00;44.90;;;;;;6194875;28;20060;-70
2022/03/11 05:40:46;;;;;;;3.63;2.10;;;19.00;45.10;;;;;;6198693;28;20022;-70
2022/03/11 05:43:47;;;;;;;3.70;2.33;;;19.00;44.90;;;;;;6194955;28;20037;-70
2022/03/11 05:46:47;;;;;;;3.80;2.17;;;19.00;45.00;;;;;;6194757;28;20129;-70
2022/03/11 05:49:48;;;;;;;4.55;2.38;;;19.00;45.10;;;;;;6194795;28;20025;-70
2022/03/11 05:52:50;;;;;;;3.65;2.47;;;19.00;44.90;;;;;;6194519;28;20039;-70
2022/03/11 05:55:50;;;;;;;3.92;2.60;;;19.00;44.90;;;;;;6195206;28;20133;-70
2022/03/11 05:58:51;;;;;;;3.58;2.42;;;19.00;44.80;;;;;;6195026;28;20461;-70
2022/03/11 06:01:51;;;;;;;3.90;2.60;;;19.10;45.10;;;;;;6185643;28;20389;-70
2022/03/11 06:04:52;;;;;;;4.78;2.20;;;19.00;44.90;;;;;;6170607;28;20052;-70
2022/03/11 06:07:52;;;;;;;4.55;2.47;;;19.00;45.10;;;;;;6170402;28;20395;-70
2022/03/11 06:10:53;;;;;;;4.20;2.42;;;19.10;45.00;;;;;;6170849;28;20023;-70
2022/03/11 06:13:53;;;;;;;3.78;2.38;;;19.00;45.10;;;;;;6170545;28;20167;-70
2022/03/11 06:16:54;;;;;;;2.67;1.95;;;19.00;45.00;;;;;;6170406;28;20035;-70
2022/03/11 06:19:55;;;;;;;4.13;2.53;;;19.10;45.70;;;;;;6170584;28;20057;-70
2022/03/11 06:22:55;;;;;;;4.03;2.30;;;19.00;44.90;;;;;;6172390;28;20077;-70
2022/03/11 06:25:56;;;;;;;3.83;2.45;;;19.00;44.80;;;;;;6193787;28;20038;-69
2022/03/11 06:28:56;;;;;;;3.25;2.28;;;19.00;45.00;;;;;;6194345;28;20022;-70
2022/03/11 06:31:57;;;;;;;4.78;2.40;;;19.10;45.00;;;;;;6194532;28;20026;-70
2022/03/11 06:34:57;;;;;;;4.22;2.40;;;19.10;45.00;;;;;;6193711;28;20501;-70
2022/03/11 06:37:58;;;;;;;2.95;2.17;;;19.10;44.90;;;;;;6194069;28;20022;-70
2022/03/11 06:40:59;;;;;;;3.35;2.25;;;19.10;44.90;;;;;;6182832;28;20088;-70
2022/03/11 06:43:59;;;;;;;4.35;2.80;;;19.10;45.00;;;;;;6189368;28;20081;-70
2022/03/11 06:47:00;;;;;;;3.17;1.98;;;19.10;45.00;;;;;;6194798;28;20022;-70
2022/03/11 06:50:01;;;;;;;5.00;2.65;;;19.10;44.90;;;;;;6193302;28;20031;-70
2022/03/11 06:53:02;;;;;;;4.13;2.40;;;19.10;45.30;;;;;;6190866;28;20026;-71
2022/03/11 06:56:04;;;;;;;7.50;2.85;;;19.10;45.00;;;;;;6193243;28;20093;-71
2022/03/11 06:59:06;;;;;;;5.60;2.63;;;19.10;44.80;;;;;;6191017;28;20033;-70
2022/03/11 07:02:06;;;;;;;3.85;2.40;;;19.10;44.90;;;;;;6203707;28;20030;-70
2022/03/11 07:05:07;;;;;;;4.70;2.20;;;19.10;45.00;;;;;;6207577;28;20103;-71
2022/03/11 07:08:10;;;;;;;4.03;2.42;;;19.10;45.10;;;;;;6205547;28;20026;-70
2022/03/11 07:11:10;;;;;;;5.00;2.20;;;19.10;45.20;;;;;;6223526;28;20045;-71
2022/03/11 07:14:11;;;;;;;5.32;2.63;;;19.10;45.20;;;;;;6222262;28;20034;-70
2022/03/11 07:17:11;;;;;;;5.10;2.83;;;19.10;45.00;;;;;;6198569;28;20626;-70
2022/03/11 07:20:12;;;;;;;6.15;2.90;;;19.10;45.20;;;;;;6198023;28;20026;-71
2022/03/11 07:23:12;;;;;;;7.22;4.00;;;19.10;45.10;;;;;;6198868;28;20041;-70
2022/03/11 07:26:13;;;;;;;13.15;5.43;;;19.10;45.10;;;;;;6198482;28;20089;-70
2022/03/11 07:29:13;;;;;;;21.42;8.10;;;19.10;45.20;;;;;;6199291;28;20058;-70
2022/03/11 07:32:16;;;;;;;16.45;7.25;;;19.10;45.00;;;;;;6198956;28;20397;-70
2022/03/11 07:35:16;;;;;;;17.13;7.80;;;19.10;45.10;;;;;;6192662;28;20034;-70
2022/03/11 07:38:17;;;;;;;15.05;6.82;;;19.10;45.10;;;;;;6174846;28;20069;-70
2022/03/11 07:41:18;;;;;;;19.77;10.00;;;19.10;45.10;;;;;;6173105;28;20030;-70
2022/03/11 07:44:20;;;;;;;24.63;11.25;;;19.10;45.10;;;;;;6196322;28;20059;-71
2022/03/11 07:47:22;;;;;;;21.13;10.80;;;19.10;45.00;;;;;;6213106;28;20041;-70
2022/03/11 07:50:22;;;;;;;29.85;14.40;;;19.10;45.00;;;;;;6222599;28;20117;-71
2022/03/11 07:53:23;;;;;;;23.05;11.98;;;19.10;45.00;;;;;;6198765;28;20038;-71
2022/03/11 07:56:24;;;;;;;30.30;13.57;;;19.10;45.00;;;;;;6198347;28;20045;-70
2022/03/11 07:59:28;;;;;;;23.15;12.73;;;19.10;45.00;;;;;;6198599;28;20164;-70
2022/03/11 08:02:29;;;;;;;26.98;14.35;;;19.10;45.00;;;;;;6196760;28;20034;-70
2022/03/11 08:05:30;;;;;;;25.02;13.50;;;19.10;45.00;;;;;;6198426;28;20030;-71
2022/03/11 08:08:31;;;;;;;27.08;14.93;;;19.10;45.10;;;;;;6198052;28;20393;-71
2022/03/11 08:11:32;;;;;;;29.20;15.98;;;19.10;45.00;;;;;;6196591;28;20691;-71
2022/03/11 08:14:33;;;;;;;32.25;16.23;;;19.10;44.90;;;;;;6197737;28;20092;-71
2022/03/11 08:17:33;;;;;;;34.40;18.17;;;19.10;45.00;;;;;;6198076;28;20026;-71
2022/03/11 08:20:34;;;;;;;30.27;18.10;;;19.10;45.00;;;;;;6197722;28;20051;-70
2022/03/11 08:23:34;;;;;;;34.05;18.30;;;19.10;45.00;;;;;;6197453;28;20034;-70
2022/03/11 08:26:35;;;;;;;33.97;17.00;;;19.10;45.00;;;;;;6196739;28;20050;-71
2022/03/11 08:29:36;;;;;;;32.42;18.40;;;19.10;45.10;;;;;;6197894;28;20030;-71
2022/03/11 08:32:38;;;;;;;37.28;20.08;;;19.10;45.00;;;;;;6197055;28;20113;-71
2022/03/11 08:35:38;;;;;;;36.65;21.25;;;19.10;45.00;;;;;;6196760;28;20027;-70
2022/03/11 08:38:39;;;;;;;27.33;16.25;;;19.10;45.00;;;;;;6197306;28;20026;-71
2022/03/11 08:41:41;;;;;;;31.35;17.48;;;19.10;45.10;;;;;;6196393;28;20426;-71
2022/03/11 08:44:42;;;;;;;38.78;20.98;;;19.10;45.10;;;;;;6194218;28;20030;-71
2022/03/11 08:47:42;;;;;;;35.10;20.80;;;19.10;45.10;;;;;;6207431;28;20023;-71
2022/03/11 08:50:43;;;;;;;33.38;18.55;;;19.10;45.10;;;;;;6189823;28;20038;-71
2022/03/11 08:53:44;;;;;;;37.03;21.50;;;19.10;45.20;;;;;;6196953;28;20085;-71
2022/03/11 08:56:44;;;;;;;37.05;20.83;;;19.10;45.10;;;;;;6191169;28;20477;-70
2022/03/11 08:59:45;;;;;;;28.73;18.23;;;19.10;45.10;;;;;;6200933;28;20057;-70
2022/03/11 09:02:46;;;;;;;36.60;20.80;;;19.10;45.30;;;;;;6207279;28;20061;-70
2022/03/11 09:05:47;;;;;;;33.65;18.45;;;19.10;45.10;;;;;;6203628;28;20030;-71
2022/03/11 09:08:47;;;;;;;34.30;20.33;;;19.10;45.20;;;;;;6196107;28;20065;-70
2022/03/11 09:11:48;;;;;;;33.70;19.95;;;19.20;45.10;;;;;;6195837;28;20049;-70
2022/03/11 09:14:48;;;;;;;34.00;20.35;;;19.20;44.90;;;;;;6195592;28;20038;-70
2022/03/11 09:17:49;;;;;;;40.45;21.45;;;19.20;44.80;;;;;;6196567;28;20388;-70
2022/03/11 09:20:50;;;;;;;35.97;21.75;;;19.20;44.60;;;;;;6196249;28;20478;-71
2022/03/11 09:23:50;;;;;;;34.20;20.02;;;19.20;44.50;;;;;;6195958;28;20034;-69
2022/03/11 09:26:52;;;;;;;32.72;19.17;;;19.30;44.60;;;;;;6195948;28;20430;-71
2022/03/11 09:29:52;;;;;;;33.15;20.33;;;19.20;44.50;;;;;;6196358;28;20105;-71
2022/03/11 09:32:53;;;;;;;29.65;18.27;;;19.30;44.60;;;;;;6195717;28;20047;-71
2022/03/11 09:35:53;;;;;;;32.63;18.42;;;19.30;44.60;;;;;;6185075;28;20041;-71
2022/03/11 09:38:54;;;;;;;28.75;17.30;;;19.30;44.60;;;;;;6191269;28;20105;-71
2022/03/11 09:41:55;;;;;;;29.52;17.35;;;19.30;44.60;;;;;;6195349;28;20026;-71
2022/03/11 09:44:56;;;;;;;30.00;18.38;;;19.30;44.60;;;;;;6195362;28;20061;-71
2022/03/11 09:47:57;;;;;;;30.65;18.08;;;19.30;44.60;;;;;;6195720;28;20037;-71
2022/03/11 09:50:58;;;;;;;28.83;16.60;;;19.30;44.60;;;;;;6195565;28;20057;-71
2022/03/11 09:53:59;;;;;;;29.20;17.90;;;19.30;44.60;;;;;;6195437;28;20041;-71
2022/03/11 09:57:00;;;;;;;29.92;17.20;;;19.30;44.60;;;;;;6200518;28;20393;-70
2022/03/11 10:00:03;;;;;;;26.23;16.00;;;19.30;45.30;;;;;;6220336;28;20022;-71
2022/03/11 10:03:04;;;;;;;29.65;16.65;;;19.30;44.80;;;;;;6219457;28;20029;-70
2022/03/11 10:06:04;;;;;;;27.90;15.57;;;19.30;44.80;;;;;;6220105;28;20026;-70
2022/03/11 10:09:06;;;;;;;26.88;15.60;;;19.30;44.80;;;;;;6220221;28;20022;-70
2022/03/11 10:12:07;;;;;;;25.17;15.40;;;19.30;44.80;;;;;;6219383;28;20018;-71
2022/03/11 10:15:09;;;;;;;26.38;15.05;;;19.30;44.50;;;;;;6219752;28;20033;-71
2022/03/11 10:18:10;;;;;;;23.38;13.60;;;19.20;44.60;;;;;;6220050;28;20488;-70
2022/03/11 10:21:11;;;;;;;23.95;14.38;;;19.20;44.70;;;;;;6219609;28;20129;-71
2022/03/11 10:24:14;;;;;;;23.25;14.50;;;19.20;44.50;;;;;;6219443;28;20022;-71
2022/03/11 10:27:15;;;;;;;25.27;13.68;;;19.20;44.60;;;;;;6201203;28;20050;-70
2022/03/11 10:30:16;;;;;;;20.25;13.65;;;19.20;44.60;;;;;;6219719;28;20028;-70
2022/03/11 10:33:16;;;;;;;22.73;12.93;;;19.20;44.80;;;;;;6219140;28;20033;-71
2022/03/11 10:36:17;;;;;;;24.55;13.63;;;19.20;45.40;;;;;;6207943;28;20124;-71
2022/03/11 10:39:22;;;;;;;27.23;12.85;;;19.20;44.70;;;;;;6200322;28;20073;-71
2022/03/11 10:42:25;;;;;;;18.27;11.63;;;19.20;44.70;;;;;;6199572;28;20018;-71
2022/03/11 10:45:25;;;;;;;20.98;12.55;;;19.20;44.70;;;;;;6199978;28;20038;-70
2022/03/11 10:48:47;;;;;;;20.75;11.98;;;19.20;44.60;;;;;;6199656;28;20030;-70
2022/03/11 10:51:47;;;;;;;22.02;12.38;;;19.20;44.60;;;;;;6198831;28;20030;-70
2022/03/11 10:54:48;;;;;;;18.40;11.23;;;19.20;44.60;;;;;;6199991;28;20039;-70
2022/03/11 10:57:53;;;;;;;18.77;11.30;;;19.20;44.70;;;;;;6199681;28;20552;-70
2022/03/11 11:00:53;;;;;;;17.65;11.25;;;19.20;44.60;;;;;;6199734;28;20501;-70
2022/03/11 11:03:54;;;;;;;21.05;11.45;;;19.20;44.80;;;;;;6199198;28;20031;-70
2022/03/11 11:06:56;;;;;;;18.75;10.35;;;19.20;44.70;;;;;;6199501;28;20034;-70
2022/03/11 11:10:00;;;;;;;14.68;9.70;;;19.20;44.80;;;;;;6199507;28;20085;-70
2022/03/11 11:13:01;;;;;;;17.80;10.52;;;19.20;44.90;;;;;;6198512;28;20125;-69
2022/03/11 11:16:04;;;;;;;17.92;9.88;;;19.20;44.80;;;;;;6199221;28;20014;-70
2022/03/11 11:19:07;;;;;;;16.40;10.35;;;19.20;44.90;;;;;;6199335;28;20018;-69
2022/03/11 11:22:09;;;;;;;17.25;10.85;;;19.20;45.00;;;;;;6198752;28;20058;-70
2022/03/11 11:25:10;;;;;;;19.45;9.88;;;19.10;44.70;;;;;;6199031;28;20082;-70
2022/03/11 11:28:18;;;;;;;17.95;10.00;;;19.20;42.70;;;;;;6197906;28;20030;-70
2022/03/11 11:31:20;;;;;;;16.23;8.90;;;19.20;42.50;;;;;;6199769;28;20072;-70
2022/03/11 11:34:31;;;;;;;16.85;8.77;;;19.20;43.40;;;;;;6198999;28;20404;-70
2022/03/11 11:37:39;;;;;;;13.85;8.73;;;19.20;44.00;;;;;;6198700;28;20027;-70
2022/03/11 11:40:45;;;;;;;16.20;8.77;;;19.20;43.80;;;;;;6198268;28;20030;-70
2022/03/11 11:44:03;;;;;;;16.92;9.65;;;19.20;44.30;;;;;;6197904;28;20355;-70
2022/03/11 11:47:11;;;;;;;14.45;8.75;;;19.20;44.30;;;;;;6198186;28;20031;-70
2022/03/11 11:50:16;;;;;;;15.25;8.05;;;19.20;44.40;;;;;;6198623;28;20030;-70
2022/03/11 11:53:34;;;;;;;14.05;8.25;;;19.20;44.40;;;;;;6197590;28;20126;-70
2022/03/11 11:56:37;;;;;;;13.57;7.68;;;19.20;44.50;;;;;;6198332;28;20089;-70
2022/03/11 11:59:38;;;;;;;16.02;9.10;;;19.20;44.30;;;;;;6197819;28;20030;-70
2022/03/11 12:02:41;;;;;;;14.75;8.00;;;19.20;44.40;;;;;;6197822;28;20029;-70
2022/03/11 12:05:46;;;;;;;12.93;7.40;;;19.20;44.40;;;;;;6198220;28;20027;-71
2022/03/11 12:08:48;;;;;;;14.27;8.25;;;19.20;44.40;;;;;;6198193;28;20097;-69
2022/03/11 12:11:49;;;;;;;13.90;8.18;;;19.20;44.40;;;;;;6197866;28;20031;-70
2022/03/11 12:15:01;;;;;;;17.45;7.57;;;19.20;44.50;;;;;;6197511;28;20041;-70
2022/03/11 12:18:02;;;;;;;13.98;8.00;;;19.20;44.50;;;;;;6198035;28;20022;-70
2022/03/11 12:21:03;;;;;;;11.77;7.00;;;19.20;44.50;;;;;;6197435;28;20552;-70
2022/03/11 12:24:34;;;;;;;12.88;7.50;;;19.20;44.50;;;;;;6193395;28;20031;-71
2022/03/11 12:28:04;;;;;;;12.43;7.15;;;19.20;44.50;;;;;;6196495;28;20121;-70
2022/03/11 12:31:09;;;;;;;12.77;6.82;;;19.20;44.50;;;;;;6197159;28;20069;-70
2022/03/11 12:34:12;;;;;;;11.32;6.95;;;19.20;44.50;;;;;;6196257;28;20030;-71
2022/03/11 12:37:15;;;;;;;13.77;7.25;;;19.20;44.50;;;;;;6174925;28;20423;-70
2022/03/11 12:40:20;;;;;;;12.55;7.35;;;19.20;44.50;;;;;;6172858;28;20043;-70
2022/03/11 12:43:21;;;;;;;11.75;6.72;;;19.20;44.50;;;;;;6186928;28;20481;-70
2022/03/11 12:46:22;;;;;;;11.18;6.90;;;19.20;44.50;;;;;;6195692;28;20054;-70
2022/03/11 12:49:27;;;;;;;12.77;6.93;;;19.20;44.50;;;;;;6196165;28;20030;-70
2022/03/11 12:52:35;;;;;;;10.98;6.70;;;19.20;44.50;;;;;;6208389;28;20026;-70
2022/03/11 12:55:38;;;;;;;11.45;5.93;;;19.20;44.40;;;;;;6220416;28;20504;-70
2022/03/11 12:58:39;;;;;;;12.93;7.07;;;19.20;44.30;;;;;;6220058;28;20177;-70
2022/03/11 13:01:42;;;;;;;11.90;6.68;;;19.20;44.20;;;;;;6220345;28;20468;-70
2022/03/11 13:04:44;;;;;;;8.98;5.90;;;19.20;44.10;;;;;;6197419;28;20042;-70
2022/03/11 13:07:45;;;;;;;13.15;6.68;;;19.30;44.00;;;;;;6196086;28;20053;-70
2022/03/11 13:10:47;;;;;;;10.55;6.32;;;19.30;43.90;;;;;;6196105;28;20018;-70
2022/03/11 13:13:49;;;;;;;10.55;6.07;;;19.30;43.70;;;;;;6195483;28;20434;-70
2022/03/11 13:16:52;;;;;;;17.08;6.93;;;19.30;43.70;;;;;;6197352;28;20030;-70
2022/03/11 13:19:52;;;;;;;12.23;6.45;;;19.30;43.60;;;;;;6200490;28;20128;-71
2022/03/11 13:22:53;;;;;;;8.70;5.63;;;19.30;43.70;;;;;;6200370;28;20030;-71
2022/03/11 13:26:00;;;;;;;12.15;5.88;;;19.30;43.70;;;;;;6205676;28;20054;-71
2022/03/11 13:29:02;;;;;;;10.60;6.38;;;19.40;43.70;;;;;;6194908;28;20400;-71
2022/03/11 13:32:05;;;;;;;11.63;6.45;;;19.30;43.60;;;;;;6195229;28;20033;-71
2022/03/11 13:35:06;;;;;;;9.65;5.80;;;19.30;43.60;;;;;;6190494;28;20039;-71
2022/03/11 13:38:07;;;;;;;10.57;6.40;;;19.40;43.70;;;;;;6173914;28;20081;-71
2022/03/11 13:41:09;;;;;;;9.57;5.60;;;19.40;43.80;;;;;;6194926;28;20095;-72
2022/03/11 13:44:12;;;;;;;9.52;5.63;;;19.30;43.70;;;;;;6209961;28;20029;-71
2022/03/11 13:47:19;;;;;;;10.70;6.22;;;19.40;43.80;;;;;;6195047;28;20054;-71
2022/03/11 13:50:23;;;;;;;11.32;5.68;;;19.30;43.80;;;;;;6194865;28;20046;-72
2022/03/11 13:53:28;;;;;;;12.30;5.63;;;19.30;43.90;;;;;;6194569;28;20084;-71
2022/03/11 13:56:38;;;;;;;8.60;4.88;;;19.30;44.00;;;;;;6195092;28;20270;-71
2022/03/11 13:59:39;;;;;;;10.50;5.22;;;19.30;44.10;;;;;;6195447;28;20045;-72
2022/03/11 14:02:39;;;;;;;10.05;5.07;;;19.30;43.80;;;;;;6193148;28;20023;-71
2022/03/11 14:05:42;;;;;;;10.90;5.60;;;19.30;42.60;;;;;;6193823;28;20038;-70
2022/03/11 14:08:49;;;;;;;12.80;5.10;;;19.20;41.50;;;;;;6194348;28;20110;-71
2022/03/11 14:11:55;;;;;;;8.88;4.80;;;19.20;41.20;;;;;;6192689;28;20019;-71
2022/03/11 14:15:10;;;;;;;8.50;4.68;;;19.20;40.60;;;;;;6194269;28;20366;-71
2022/03/11 14:18:13;;;;;;;12.23;5.22;;;19.20;42.00;;;;;;6208018;28;20041;-70
2022/03/11 14:21:14;;;;;;;9.85;5.05;;;19.20;42.40;;;;;;6218981;28;20034;-71
2022/03/11 14:24:14;;;;;;;9.70;5.00;;;19.20;42.60;;;;;;6197074;28;20080;-71
2022/03/11 14:27:16;;;;;;;8.63;4.50;;;19.20;42.80;;;;;;6193435;28;20505;-71
2022/03/11 14:30:17;;;;;;;7.43;4.15;;;19.20;43.10;;;;;;6196779;28;20023;-71
2022/03/11 14:33:17;;;;;;;9.68;4.53;;;19.20;43.20;;;;;;6194001;28;20088;-71
2022/03/11 14:36:18;;;;;;;7.35;4.43;;;19.20;43.20;;;;;;6179494;28;20042;-71
2022/03/11 14:39:18;;;;;;;7.43;4.20;;;19.20;43.30;;;;;;6170658;28;20027;-71
2022/03/11 14:42:20;;;;;;;8.93;4.93;;;19.20;43.40;;;;;;6175571;28;20080;-71
2022/03/11 14:45:20;;;;;;;8.02;4.38;;;19.20;43.40;;;;;;6193640;28;20026;-71
2022/03/11 14:48:21;;;;;;;9.32;4.88;;;19.20;43.50;;;;;;6193854;28;20033;-71
2022/03/11 14:51:22;;;;;;;9.25;4.75;;;19.20;43.50;;;;;;6193913;28;20022;-71
2022/03/11 14:54:22;;;;;;;8.65;4.65;;;19.20;43.60;;;;;;6202416;28;20034;-71
2022/03/11 14:57:26;;;;;;;11.57;5.38;;;19.20;43.60;;;;;;6214279;28;20034;-70
2022/03/11 15:00:26;;;;;;;16.45;5.43;;;19.20;43.40;;;;;;6193757;28;20438;-70
2022/03/11 15:03:27;;;;;;;11.07;5.03;;;19.20;43.50;;;;;;6192532;28;20041;-71
2022/03/11 15:06:28;;;;;;;11.82;5.65;;;19.20;43.50;;;;;;6192966;28;20089;-71
2022/03/11 15:09:28;;;;;;;11.90;5.15;;;19.20;43.60;;;;;;6193528;28;20058;-71
2022/03/11 15:12:29;;;;;;;12.30;5.50;;;19.20;43.70;;;;;;6192739;28;20069;-71
2022/03/11 15:15:32;;;;;;;10.63;5.88;;;19.20;43.70;;;;;;6193438;28;20041;-70
2022/03/11 15:18:32;;;;;;;11.68;5.82;;;19.20;43.80;;;;;;6209825;28;20072;-71
2022/03/11 15:21:34;;;;;;;13.45;5.50;;;19.20;43.80;;;;;;6214738;28;20486;-70
2022/03/11 15:24:36;;;;;;;12.43;5.63;;;19.20;43.80;;;;;;6196023;28;20034;-71
2022/03/11 15:27:37;;;;;;;12.15;5.63;;;19.20;43.80;;;;;;6197090;28;20054;-71
2022/03/11 15:30:37;;;;;;;12.18;5.70;;;19.20;43.80;;;;;;6196607;28;20089;-71
2022/03/11 15:33:39;;;;;;;13.05;6.28;;;19.20;43.90;;;;;;6197568;28;20425;-71
2022/03/11 15:36:39;;;;;;;12.50;6.03;;;19.20;43.90;;;;;;6197279;28;20034;-71